sensor_id;sensor_type;location;lat;lon;timestamp;temperature;humidity
16523;DHT22;19889;52.546;13.348;2023-05-29T00:01:15;19.00;85.00
16523;DHT22;19889;52.546;13.348;2023-05-29T00:03:44;18.90;85.10
16523;DHT22;19889;52.546;13.348;2023-05-29T00:06:11;18.90;85.20
16523;DHT22;19889;52.546;13.348;2023-05-29T00:08:39;18.90;85.20
16523;DHT22;19889;52.546;13.348;2023-05-29T00:11:06;18.90;85.30
16523;DHT22;19889;52.546;13.348;2023-05-29T00:13:33;18.90;85.20
16523;DHT22;19889;52.546;13.348;2023-05-29T00:16:02;18.90;85.20
16523;DHT22;19889;52.546;13.348;2023-05-29T00:18:30;18.90;85.30
16523;DHT22;19889;52.546;13.348;2023-05-29T00:20:57;18.90;85.20
16523;DHT22;19889;52.546;13.348;2023-05-29T00:23:24;18.90;85.30
16523;DHT22;19889;52.546;13.348;2023-05-29T00:25:51;18.90;85.30
16523;DHT22;19889;52.546;13.348;2023-05-29T00:28:18;18.80;85.20
16523;DHT22;19889;52.546;13.348;2023-05-29T00:30:45;18.90;85.20
16523;DHT22;19889;52.546;13.348;2023-05-29T00:33:13;18.80;85.10
16523;DHT22;19889;52.546;13.348;2023-05-29T00:35:41;18.80;85.10
16523;DHT22;19889;52.546;13.348;2023-05-29T00:38:08;18.80;85.10
16523;DHT22;19889;52.546;13.348;2023-05-29T00:40:35;18.80;85.40
16523;DHT22;19889;52.546;13.348;2023-05-29T00:43:02;18.80;85.10
16523;DHT22;19889;52.546;13.348;2023-05-29T00:45:29;18.70;85.90
16523;DHT22;19889;52.546;13.348;2023-05-29T00:47:57;18.70;85.30
16523;DHT22;19889;52.546;13.348;2023-05-29T00:50:26;18.60;85.30
16523;DHT22;19889;52.546;13.348;2023-05-29T00:52:53;18.60;86.10
16523;DHT22;19889;52.546;13.348;2023-05-29T00:55:20;18.60;85.50
16523;DHT22;19889;52.546;13.348;2023-05-29T00:57:48;18.50;85.50
16523;DHT22;19889;52.546;13.348;2023-05-29T01:00:16;18.40;85.60
16523;DHT22;19889;52.546;13.348;2023-05-29T01:02:44;18.40;85.70
16523;DHT22;19889;52.546;13.348;2023-05-29T01:05:12;18.40;85.80
16523;DHT22;19889;52.546;13.348;2023-05-29T01:07:42;18.30;85.90
16523;DHT22;19889;52.546;13.348;2023-05-29T01:10:10;20.70;87.60
16523;DHT22;19889;52.546;13.348;2023-05-29T01:12:40;18.20;86.20
16523;DHT22;19889;52.546;13.348;2023-05-29T01:15:24;18.20;86.40
16523;DHT22;19889;52.546;13.348;2023-05-29T01:18:08;18.20;86.60
16523;DHT22;19889;52.546;13.348;2023-05-29T01:20:40;18.10;86.70
16523;DHT22;19889;52.546;13.348;2023-05-29T01:23:28;18.10;86.80
16523;DHT22;19889;52.546;13.348;2023-05-29T01:26:12;18.10;88.00
16523;DHT22;19889;52.546;13.348;2023-05-29T01:28:48;18.00;87.20
16523;DHT22;19889;52.546;13.348;2023-05-29T01:31:22;18.00;87.30
16523;DHT22;19889;52.546;13.348;2023-05-29T01:33:54;18.00;87.60
16523;DHT22;19889;52.546;13.348;2023-05-29T01:36:21;17.90;87.70
16523;DHT22;19889;52.546;13.348;2023-05-29T01:38:49;17.90;87.90
16523;DHT22;19889;52.546;13.348;2023-05-29T01:41:18;17.90;88.10
16523;DHT22;19889;52.546;13.348;2023-05-29T01:43:48;17.80;89.00
16523;DHT22;19889;52.546;13.348;2023-05-29T01:46:18;17.80;89.10
16523;DHT22;19889;52.546;13.348;2023-05-29T01:48:45;17.80;89.20
16523;DHT22;19889;52.546;13.348;2023-05-29T01:51:13;17.80;88.50
16523;DHT22;19889;52.546;13.348;2023-05-29T01:53:41;17.80;88.70
16523;DHT22;19889;52.546;13.348;2023-05-29T01:56:09;17.70;88.70
16523;DHT22;19889;52.546;13.348;2023-05-29T01:58:38;17.70;88.70
16523;DHT22;19889;52.546;13.348;2023-05-29T02:01:07;17.70;88.80
16523;DHT22;19889;52.546;13.348;2023-05-29T02:03:34;17.70;89.00
16523;DHT22;19889;52.546;13.348;2023-05-29T02:06:01;17.70;89.00
16523;DHT22;19889;52.546;13.348;2023-05-29T02:08:28;17.60;88.90
16523;DHT22;19889;52.546;13.348;2023-05-29T02:10:56;17.60;89.00
16523;DHT22;19889;52.546;13.348;2023-05-29T02:13:23;17.60;89.10
16523;DHT22;19889;52.546;13.348;2023-05-29T02:15:50;17.60;89.10
16523;DHT22;19889;52.546;13.348;2023-05-29T02:18:18;17.60;89.20
16523;DHT22;19889;52.546;13.348;2023-05-29T02:20:45;17.50;89.30
16523;DHT22;19889;52.546;13.348;2023-05-29T02:23:20;17.50;89.50
16523;DHT22;19889;52.546;13.348;2023-05-29T02:25:47;17.50;89.40
16523;DHT22;19889;52.546;13.348;2023-05-29T02:28:14;17.40;89.50
16523;DHT22;19889;52.546;13.348;2023-05-29T02:30:41;17.40;89.70
16523;DHT22;19889;52.546;13.348;2023-05-29T02:33:08;17.30;90.20
16523;DHT22;19889;52.546;13.348;2023-05-29T02:35:37;17.30;90.00
16523;DHT22;19889;52.546;13.348;2023-05-29T02:38:04;17.30;90.00
16523;DHT22;19889;52.546;13.348;2023-05-29T02:40:31;17.20;90.00
16523;DHT22;19889;52.546;13.348;2023-05-29T02:42:58;17.20;90.00
16523;DHT22;19889;52.546;13.348;2023-05-29T02:45:25;17.20;90.10
16523;DHT22;19889;52.546;13.348;2023-05-29T02:47:53;17.20;90.10
16523;DHT22;19889;52.546;13.348;2023-05-29T02:50:20;17.20;90.20
16523;DHT22;19889;52.546;13.348;2023-05-29T02:52:48;17.20;90.20
16523;DHT22;19889;52.546;13.348;2023-05-29T02:55:15;17.10;90.30
16523;DHT22;19889;52.546;13.348;2023-05-29T02:57:42;17.10;90.30
16523;DHT22;19889;52.546;13.348;2023-05-29T03:00:10;17.10;90.30
16523;DHT22;19889;52.546;13.348;2023-05-29T03:02:39;17.10;90.30
16523;DHT22;19889;52.546;13.348;2023-05-29T03:05:07;17.10;90.30
16523;DHT22;19889;52.546;13.348;2023-05-29T03:07:35;17.00;90.30
16523;DHT22;19889;52.546;13.348;2023-05-29T03:10:04;17.00;90.40
16523;DHT22;19889;52.546;13.348;2023-05-29T03:12:31;17.00;90.50
16523;DHT22;19889;52.546;13.348;2023-05-29T03:14:58;17.00;90.50
16523;DHT22;19889;52.546;13.348;2023-05-29T03:17:27;16.90;90.70
16523;DHT22;19889;52.546;13.348;2023-05-29T03:19:54;16.90;90.50
16523;DHT22;19889;52.546;13.348;2023-05-29T03:22:21;16.90;90.50
16523;DHT22;19889;52.546;13.348;2023-05-29T03:24:48;16.80;90.50
16523;DHT22;19889;52.546;13.348;2023-05-29T03:27:17;16.80;90.60
16523;DHT22;19889;52.546;13.348;2023-05-29T03:29:46;16.70;90.60
16523;DHT22;19889;52.546;13.348;2023-05-29T03:32:13;16.80;90.60
16523;DHT22;19889;52.546;13.348;2023-05-29T03:34:40;16.80;90.60
16523;DHT22;19889;52.546;13.348;2023-05-29T03:37:08;16.80;90.60
16523;DHT22;19889;52.546;13.348;2023-05-29T03:39:35;16.70;90.60
16523;DHT22;19889;52.546;13.348;2023-05-29T03:42:03;16.70;90.70
16523;DHT22;19889;52.546;13.348;2023-05-29T03:44:32;16.70;90.70
16523;DHT22;19889;52.546;13.348;2023-05-29T03:46:59;16.70;90.70
16523;DHT22;19889;52.546;13.348;2023-05-29T03:49:26;16.70;90.70
16523;DHT22;19889;52.546;13.348;2023-05-29T03:51:53;16.70;90.70
16523;DHT22;19889;52.546;13.348;2023-05-29T03:54:20;16.70;90.70
16523;DHT22;19889;52.546;13.348;2023-05-29T03:56:47;16.80;90.70
16523;DHT22;19889;52.546;13.348;2023-05-29T03:59:16;16.70;90.70
16523;DHT22;19889;52.546;13.348;2023-05-29T04:01:44;16.70;90.70
16523;DHT22;19889;52.546;13.348;2023-05-29T04:04:11;16.70;90.70
16523;DHT22;19889;52.546;13.348;2023-05-29T04:06:38;16.70;90.70
16523;DHT22;19889;52.546;13.348;2023-05-29T04:09:05;16.70;90.70
16523;DHT22;19889;52.546;13.348;2023-05-29T04:11:34;16.70;90.80
16523;DHT22;19889;52.546;13.348;2023-05-29T04:14:01;16.80;90.80
16523;DHT22;19889;52.546;13.348;2023-05-29T04:16:29;16.80;90.80
16523;DHT22;19889;52.546;13.348;2023-05-29T04:18:57;16.70;90.70
16523;DHT22;19889;52.546;13.348;2023-05-29T04:21:26;16.70;90.80
16523;DHT22;19889;52.546;13.348;2023-05-29T04:23:54;16.80;90.80
16523;DHT22;19889;52.546;13.348;2023-05-29T04:26:22;16.80;90.80
16523;DHT22;19889;52.546;13.348;2023-05-29T04:28:52;16.80;90.80
16523;DHT22;19889;52.546;13.348;2023-05-29T04:31:24;16.80;90.80
16523;DHT22;19889;52.546;13.348;2023-05-29T04:33:52;16.90;90.80
16523;DHT22;19889;52.546;13.348;2023-05-29T04:36:24;16.90;90.80
16523;DHT22;19889;52.546;13.348;2023-05-29T04:39:01;16.90;90.80
16523;DHT22;19889;52.546;13.348;2023-05-29T04:41:28;16.90;91.20
16523;DHT22;19889;52.546;13.348;2023-05-29T04:43:58;16.90;90.80
16523;DHT22;19889;52.546;13.348;2023-05-29T04:46:30;16.90;90.80
16523;DHT22;19889;52.546;13.348;2023-05-29T04:48:57;16.90;90.90
16523;DHT22;19889;52.546;13.348;2023-05-29T04:51:26;16.90;90.80
16523;DHT22;19889;52.546;13.348;2023-05-29T04:53:54;16.90;90.80
16523;DHT22;19889;52.546;13.348;2023-05-29T04:56:21;17.00;90.80
16523;DHT22;19889;52.546;13.348;2023-05-29T04:58:48;17.00;90.80
16523;DHT22;19889;52.546;13.348;2023-05-29T05:01:16;16.90;90.80
16523;DHT22;19889;52.546;13.348;2023-05-29T05:03:43;16.90;90.80
16523;DHT22;19889;52.546;13.348;2023-05-29T05:06:12;17.00;90.80
16523;DHT22;19889;52.546;13.348;2023-05-29T05:08:43;16.90;90.80
16523;DHT22;19889;52.546;13.348;2023-05-29T05:11:11;16.90;90.80
16523;DHT22;19889;52.546;13.348;2023-05-29T05:13:40;17.00;91.10
16523;DHT22;19889;52.546;13.348;2023-05-29T05:16:07;17.00;90.70
16523;DHT22;19889;52.546;13.348;2023-05-29T05:18:34;17.00;90.70
16523;DHT22;19889;52.546;13.348;2023-05-29T05:21:06;17.00;90.70
16523;DHT22;19889;52.546;13.348;2023-05-29T05:23:35;17.00;90.80
16523;DHT22;19889;52.546;13.348;2023-05-29T05:26:03;17.00;90.80
16523;DHT22;19889;52.546;13.348;2023-05-29T05:28:36;17.10;90.80
16523;DHT22;19889;52.546;13.348;2023-05-29T05:31:04;17.10;90.70
16523;DHT22;19889;52.546;13.348;2023-05-29T05:33:32;17.10;90.70
16523;DHT22;19889;52.546;13.348;2023-05-29T05:35:58;17.10;90.70
16523;DHT22;19889;52.546;13.348;2023-05-29T05:38:26;17.10;91.00
16523;DHT22;19889;52.546;13.348;2023-05-29T05:40:53;17.20;90.60
16523;DHT22;19889;52.546;13.348;2023-05-29T05:43:27;17.20;90.70
16523;DHT22;19889;52.546;13.348;2023-05-29T05:46:14;17.10;90.70
16523;DHT22;19889;52.546;13.348;2023-05-29T05:48:43;17.10;90.60
16523;DHT22;19889;52.546;13.348;2023-05-29T05:51:10;17.20;90.60
16523;DHT22;19889;52.546;13.348;2023-05-29T05:53:39;17.20;90.70
16523;DHT22;19889;52.546;13.348;2023-05-29T05:56:06;17.20;90.70
16523;DHT22;19889;52.546;13.348;2023-05-29T05:58:35;17.20;90.70
16523;DHT22;19889;52.546;13.348;2023-05-29T06:01:02;17.20;90.70
16523;DHT22;19889;52.546;13.348;2023-05-29T06:03:29;17.20;90.70
16523;DHT22;19889;52.546;13.348;2023-05-29T06:06:05;17.30;90.70
16523;DHT22;19889;52.546;13.348;2023-05-29T06:08:33;17.30;90.70
16523;DHT22;19889;52.546;13.348;2023-05-29T06:11:00;17.40;90.70
16523;DHT22;19889;52.546;13.348;2023-05-29T06:13:28;17.40;91.10
16523;DHT22;19889;52.546;13.348;2023-05-29T06:16:04;17.40;90.60
16523;DHT22;19889;52.546;13.348;2023-05-29T06:18:31;17.50;90.60
16523;DHT22;19889;52.546;13.348;2023-05-29T06:20:58;17.60;90.50
16523;DHT22;19889;52.546;13.348;2023-05-29T06:23:26;17.60;90.40
16523;DHT22;19889;52.546;13.348;2023-05-29T06:25:53;17.60;90.40
16523;DHT22;19889;52.546;13.348;2023-05-29T06:28:20;17.70;90.50
16523;DHT22;19889;52.546;13.348;2023-05-29T06:30:48;17.70;90.50
16523;DHT22;19889;52.546;13.348;2023-05-29T06:33:18;17.70;90.50
16523;DHT22;19889;52.546;13.348;2023-05-29T06:35:46;17.70;90.50
16523;DHT22;19889;52.546;13.348;2023-05-29T06:38:13;17.80;90.30
16523;DHT22;19889;52.546;13.348;2023-05-29T06:40:40;17.80;90.30
16523;DHT22;19889;52.546;13.348;2023-05-29T06:43:07;17.80;90.20
16523;DHT22;19889;52.546;13.348;2023-05-29T06:45:45;17.80;90.20
16523;DHT22;19889;52.546;13.348;2023-05-29T06:48:12;17.90;90.10
16523;DHT22;19889;52.546;13.348;2023-05-29T06:50:41;18.00;90.50
16523;DHT22;19889;52.546;13.348;2023-05-29T06:53:28;18.00;90.00
16523;DHT22;19889;52.546;13.348;2023-05-29T06:55:56;18.10;90.00
16523;DHT22;19889;52.546;13.348;2023-05-29T06:58:23;18.10;89.80
16523;DHT22;19889;52.546;13.348;2023-05-29T07:00:50;18.10;89.60
16523;DHT22;19889;52.546;13.348;2023-05-29T07:03:27;18.30;89.50
16523;DHT22;19889;52.546;13.348;2023-05-29T07:05:56;18.30;89.10
16523;DHT22;19889;52.546;13.348;2023-05-29T07:08:23;18.30;88.80
16523;DHT22;19889;52.546;13.348;2023-05-29T07:10:52;18.30;88.50
16523;DHT22;19889;52.546;13.348;2023-05-29T07:13:20;18.30;88.50
16523;DHT22;19889;52.546;13.348;2023-05-29T07:15:48;18.30;88.60
16523;DHT22;19889;52.546;13.348;2023-05-29T07:18:17;18.30;88.50
16523;DHT22;19889;52.546;13.348;2023-05-29T07:20:44;18.30;88.40
16523;DHT22;19889;52.546;13.348;2023-05-29T07:23:15;18.30;88.40
16523;DHT22;19889;52.546;13.348;2023-05-29T07:25:42;18.40;88.30
16523;DHT22;19889;52.546;13.348;2023-05-29T07:28:09;18.40;88.00
16523;DHT22;19889;52.546;13.348;2023-05-29T07:30:36;18.50;88.10
16523;DHT22;19889;52.546;13.348;2023-05-29T07:33:04;18.50;88.10
16523;DHT22;19889;52.546;13.348;2023-05-29T07:35:32;18.50;88.00
16523;DHT22;19889;52.546;13.348;2023-05-29T07:38:00;18.60;87.90
16523;DHT22;19889;52.546;13.348;2023-05-29T07:40:28;18.60;87.80
16523;DHT22;19889;52.546;13.348;2023-05-29T07:43:10;18.60;87.60
16523;DHT22;19889;52.546;13.348;2023-05-29T07:45:45;18.60;87.40
16523;DHT22;19889;52.546;13.348;2023-05-29T07:48:12;18.60;87.10
16523;DHT22;19889;52.546;13.348;2023-05-29T07:50:40;18.60;86.90
16523;DHT22;19889;52.546;13.348;2023-05-29T07:53:07;18.70;86.80
16523;DHT22;19889;52.546;13.348;2023-05-29T07:55:38;18.70;86.70
16523;DHT22;19889;52.546;13.348;2023-05-29T07:58:05;18.70;86.70
16523;DHT22;19889;52.546;13.348;2023-05-29T08:00:33;18.70;87.40
16523;DHT22;19889;52.546;13.348;2023-05-29T08:03:03;18.80;87.30
16523;DHT22;19889;52.546;13.348;2023-05-29T08:05:30;18.80;87.20
16523;DHT22;19889;52.546;13.348;2023-05-29T08:08:00;18.80;86.40
16523;DHT22;19889;52.546;13.348;2023-05-29T08:10:27;18.80;86.30
16523;DHT22;19889;52.546;13.348;2023-05-29T08:12:55;18.90;86.30
16523;DHT22;19889;52.546;13.348;2023-05-29T08:15:22;18.90;86.30
16523;DHT22;19889;52.546;13.348;2023-05-29T08:17:49;18.90;86.30
16523;DHT22;19889;52.546;13.348;2023-05-29T08:20:16;18.90;86.00
16523;DHT22;19889;52.546;13.348;2023-05-29T08:22:44;18.80;85.70
16523;DHT22;19889;52.546;13.348;2023-05-29T08:25:11;18.80;85.80
16523;DHT22;19889;52.546;13.348;2023-05-29T08:27:38;18.90;86.00
16523;DHT22;19889;52.546;13.348;2023-05-29T08:30:08;18.90;86.10
16523;DHT22;19889;52.546;13.348;2023-05-29T08:32:35;18.90;86.00
16523;DHT22;19889;52.546;13.348;2023-05-29T08:35:02;18.90;85.80
16523;DHT22;19889;52.546;13.348;2023-05-29T08:37:30;19.00;85.70
16523;DHT22;19889;52.546;13.348;2023-05-29T08:39:57;18.90;85.60
16523;DHT22;19889;52.546;13.348;2023-05-29T08:42:29;19.00;85.50
16523;DHT22;19889;52.546;13.348;2023-05-29T08:45:03;19.00;85.40
16523;DHT22;19889;52.546;13.348;2023-05-29T08:47:33;19.00;85.20
16523;DHT22;19889;52.546;13.348;2023-05-29T08:50:01;19.10;85.20
16523;DHT22;19889;52.546;13.348;2023-05-29T08:52:31;19.20;85.00
16523;DHT22;19889;52.546;13.348;2023-05-29T08:55:01;19.20;85.00
16523;DHT22;19889;52.546;13.348;2023-05-29T08:57:29;19.20;85.00
16523;DHT22;19889;52.546;13.348;2023-05-29T08:59:56;19.20;85.00
16523;DHT22;19889;52.546;13.348;2023-05-29T09:02:23;19.30;85.10
16523;DHT22;19889;52.546;13.348;2023-05-29T09:04:52;19.30;85.10
16523;DHT22;19889;52.546;13.348;2023-05-29T09:07:19;19.30;85.20
16523;DHT22;19889;52.546;13.348;2023-05-29T09:09:48;19.40;85.30
16523;DHT22;19889;52.546;13.348;2023-05-29T09:12:16;19.40;85.40
16523;DHT22;19889;52.546;13.348;2023-05-29T09:14:44;19.50;85.30
16523;DHT22;19889;52.546;13.348;2023-05-29T09:17:13;19.60;85.30
16523;DHT22;19889;52.546;13.348;2023-05-29T09:19:41;19.70;85.30
16523;DHT22;19889;52.546;13.348;2023-05-29T09:22:11;19.90;85.40
16523;DHT22;19889;52.546;13.348;2023-05-29T09:24:41;20.00;85.00
16523;DHT22;19889;52.546;13.348;2023-05-29T09:27:09;20.00;84.40
16523;DHT22;19889;52.546;13.348;2023-05-29T09:29:38;20.00;84.20
16523;DHT22;19889;52.546;13.348;2023-05-29T09:32:07;20.00;84.00
16523;DHT22;19889;52.546;13.348;2023-05-29T09:34:35;20.00;83.80
16523;DHT22;19889;52.546;13.348;2023-05-29T09:37:04;18.30;82.70
16523;DHT22;19889;52.546;13.348;2023-05-29T09:39:44;20.00;83.70
16523;DHT22;19889;52.546;13.348;2023-05-29T09:42:12;20.00;83.80
16523;DHT22;19889;52.546;13.348;2023-05-29T09:44:40;20.00;84.00
16523;DHT22;19889;52.546;13.348;2023-05-29T09:47:07;20.00;84.00
16523;DHT22;19889;52.546;13.348;2023-05-29T09:49:34;20.00;84.70
16523;DHT22;19889;52.546;13.348;2023-05-29T09:52:04;20.00;83.80
16523;DHT22;19889;52.546;13.348;2023-05-29T09:54:36;20.00;83.80
16523;DHT22;19889;52.546;13.348;2023-05-29T09:57:03;20.00;83.80
16523;DHT22;19889;52.546;13.348;2023-05-29T09:59:33;20.10;83.90
16523;DHT22;19889;52.546;13.348;2023-05-29T10:02:02;20.10;83.80
16523;DHT22;19889;52.546;13.348;2023-05-29T10:04:30;20.10;83.70
16523;DHT22;19889;52.546;13.348;2023-05-29T10:07:01;20.10;83.40
16523;DHT22;19889;52.546;13.348;2023-05-29T10:09:30;20.10;83.50
16523;DHT22;19889;52.546;13.348;2023-05-29T10:12:03;20.10;83.40
16523;DHT22;19889;52.546;13.348;2023-05-29T10:14:34;20.10;83.20
16523;DHT22;19889;52.546;13.348;2023-05-29T10:17:03;20.00;82.80
16523;DHT22;19889;52.546;13.348;2023-05-29T10:19:36;20.00;82.70
16523;DHT22;19889;52.546;13.348;2023-05-29T10:22:04;20.00;82.50
16523;DHT22;19889;52.546;13.348;2023-05-29T10:24:33;20.00;82.20
16523;DHT22;19889;52.546;13.348;2023-05-29T10:27:05;20.00;82.00
16523;DHT22;19889;52.546;13.348;2023-05-29T10:29:41;20.00;81.90
16523;DHT22;19889;52.546;13.348;2023-05-29T10:32:20;20.10;81.70
16523;DHT22;19889;52.546;13.348;2023-05-29T10:34:55;20.10;81.40
16523;DHT22;19889;52.546;13.348;2023-05-29T10:37:31;20.10;81.30
16523;DHT22;19889;52.546;13.348;2023-05-29T10:40:07;20.10;82.10
16523;DHT22;19889;52.546;13.348;2023-05-29T10:42:43;20.10;81.30
16523;DHT22;19889;52.546;13.348;2023-05-29T10:45:11;20.10;80.70
16523;DHT22;19889;52.546;13.348;2023-05-29T10:47:53;20.10;80.60
16523;DHT22;19889;52.546;13.348;2023-05-29T10:50:35;20.00;80.80
16523;DHT22;19889;52.546;13.348;2023-05-29T10:53:02;20.00;80.90
16523;DHT22;19889;52.546;13.348;2023-05-29T10:55:34;20.00;81.10
16523;DHT22;19889;52.546;13.348;2023-05-29T10:58:06;20.10;81.20
16523;DHT22;19889;52.546;13.348;2023-05-29T11:00:33;20.10;82.10
16523;DHT22;19889;52.546;13.348;2023-05-29T11:03:02;20.10;81.20
16523;DHT22;19889;52.546;13.348;2023-05-29T11:05:29;20.20;81.20
16523;DHT22;19889;52.546;13.348;2023-05-29T11:07:57;20.20;81.00
16523;DHT22;19889;52.546;13.348;2023-05-29T11:10:44;20.20;80.70
16523;DHT22;19889;52.546;13.348;2023-05-29T11:13:23;20.20;80.50
16523;DHT22;19889;52.546;13.348;2023-05-29T11:16:14;20.20;80.60
16523;DHT22;19889;52.546;13.348;2023-05-29T11:18:46;20.30;80.70
16523;DHT22;19889;52.546;13.348;2023-05-29T11:21:29;20.30;80.40
16523;DHT22;19889;52.546;13.348;2023-05-29T11:23:57;20.30;79.80
16523;DHT22;19889;52.546;13.348;2023-05-29T11:26:27;20.30;79.30
16523;DHT22;19889;52.546;13.348;2023-05-29T11:28:57;20.30;79.20
16523;DHT22;19889;52.546;13.348;2023-05-29T11:31:25;20.30;79.50
16523;DHT22;19889;52.546;13.348;2023-05-29T11:33:55;20.30;79.80
16523;DHT22;19889;52.546;13.348;2023-05-29T11:36:26;20.30;79.80
16523;DHT22;19889;52.546;13.348;2023-05-29T11:38:53;20.30;79.90
16523;DHT22;19889;52.546;13.348;2023-05-29T11:41:20;20.30;79.80
16523;DHT22;19889;52.546;13.348;2023-05-29T11:43:57;20.40;79.80
16523;DHT22;19889;52.546;13.348;2023-05-29T11:46:25;20.30;79.10
16523;DHT22;19889;52.546;13.348;2023-05-29T11:48:53;20.30;79.10
16523;DHT22;19889;52.546;13.348;2023-05-29T11:51:20;20.30;79.20
16523;DHT22;19889;52.546;13.348;2023-05-29T11:53:48;20.30;79.00
16523;DHT22;19889;52.546;13.348;2023-05-29T11:56:18;20.30;78.90
16523;DHT22;19889;52.546;13.348;2023-05-29T11:58:46;20.30;78.90
16523;DHT22;19889;52.546;13.348;2023-05-29T12:01:16;20.30;79.00
16523;DHT22;19889;52.546;13.348;2023-05-29T12:03:44;20.40;79.20
16523;DHT22;19889;52.546;13.348;2023-05-29T12:06:12;20.40;79.90
16523;DHT22;19889;52.546;13.348;2023-05-29T12:08:39;20.40;79.10
16523;DHT22;19889;52.546;13.348;2023-05-29T12:11:07;20.50;79.20
16523;DHT22;19889;52.546;13.348;2023-05-29T12:13:33;20.50;79.40
16523;DHT22;19889;52.546;13.348;2023-05-29T12:16:04;20.50;79.10
16523;DHT22;19889;52.546;13.348;2023-05-29T12:18:32;20.50;79.00
16523;DHT22;19889;52.546;13.348;2023-05-29T12:21:01;20.50;79.00
16523;DHT22;19889;52.546;13.348;2023-05-29T12:23:29;20.50;78.80
16523;DHT22;19889;52.546;13.348;2023-05-29T12:25:56;20.50;78.40
16523;DHT22;19889;52.546;13.348;2023-05-29T12:28:23;20.50;78.10
16523;DHT22;19889;52.546;13.348;2023-05-29T12:30:50;20.50;78.00
16523;DHT22;19889;52.546;13.348;2023-05-29T12:33:25;20.50;77.70
16523;DHT22;19889;52.546;13.348;2023-05-29T12:36:00;20.50;77.00
16523;DHT22;19889;52.546;13.348;2023-05-29T12:38:27;20.50;77.00
16523;DHT22;19889;52.546;13.348;2023-05-29T12:40:54;20.50;77.00
16523;DHT22;19889;52.546;13.348;2023-05-29T12:43:22;20.50;77.00
16523;DHT22;19889;52.546;13.348;2023-05-29T12:45:54;20.60;77.20
16523;DHT22;19889;52.546;13.348;2023-05-29T12:48:26;20.60;77.40
16523;DHT22;19889;52.546;13.348;2023-05-29T12:50:55;20.60;77.30
16523;DHT22;19889;52.546;13.348;2023-05-29T12:53:28;20.60;78.10
16523;DHT22;19889;52.546;13.348;2023-05-29T12:55:55;20.60;77.30
16523;DHT22;19889;52.546;13.348;2023-05-29T12:58:22;20.60;77.40
16523;DHT22;19889;52.546;13.348;2023-05-29T13:00:52;20.60;77.50
16523;DHT22;19889;52.546;13.348;2023-05-29T13:03:21;20.70;77.70
16523;DHT22;19889;52.546;13.348;2023-05-29T13:05:49;20.70;77.80
16523;DHT22;19889;52.546;13.348;2023-05-29T13:08:18;20.70;76.80
16523;DHT22;19889;52.546;13.348;2023-05-29T13:10:45;20.70;76.20
16523;DHT22;19889;52.546;13.348;2023-05-29T13:13:12;20.70;76.10
16523;DHT22;19889;52.546;13.348;2023-05-29T13:15:40;20.70;76.20
16523;DHT22;19889;52.546;13.348;2023-05-29T13:18:07;20.70;76.20
16523;DHT22;19889;52.546;13.348;2023-05-29T13:20:34;20.70;76.20
16523;DHT22;19889;52.546;13.348;2023-05-29T13:23:01;20.70;76.00
16523;DHT22;19889;52.546;13.348;2023-05-29T13:25:29;20.60;76.10
16523;DHT22;19889;52.546;13.348;2023-05-29T13:27:56;20.60;76.40
16523;DHT22;19889;52.546;13.348;2023-05-29T13:30:23;20.60;76.50
16523;DHT22;19889;52.546;13.348;2023-05-29T13:32:50;20.60;76.60
16523;DHT22;19889;52.546;13.348;2023-05-29T13:35:18;20.60;76.50
16523;DHT22;19889;52.546;13.348;2023-05-29T13:37:46;20.60;76.50
16523;DHT22;19889;52.546;13.348;2023-05-29T13:40:13;20.60;76.90
16523;DHT22;19889;52.546;13.348;2023-05-29T13:42:41;20.60;76.80
16523;DHT22;19889;52.546;13.348;2023-05-29T13:45:09;20.60;76.90
16523;DHT22;19889;52.546;13.348;2023-05-29T13:47:37;20.70;76.60
16523;DHT22;19889;52.546;13.348;2023-05-29T13:50:05;20.70;76.40
16523;DHT22;19889;52.546;13.348;2023-05-29T13:52:32;20.70;76.50
16523;DHT22;19889;52.546;13.348;2023-05-29T13:55:00;20.70;76.70
16523;DHT22;19889;52.546;13.348;2023-05-29T13:57:31;20.70;76.70
16523;DHT22;19889;52.546;13.348;2023-05-29T14:00:00;20.70;76.30
16523;DHT22;19889;52.546;13.348;2023-05-29T14:02:31;20.70;75.90
16523;DHT22;19889;52.546;13.348;2023-05-29T14:04:58;20.70;75.80
16523;DHT22;19889;52.546;13.348;2023-05-29T14:07:25;20.70;75.90
16523;DHT22;19889;52.546;13.348;2023-05-29T14:09:52;20.70;75.90
16523;DHT22;19889;52.546;13.348;2023-05-29T14:12:19;20.70;75.70
16523;DHT22;19889;52.546;13.348;2023-05-29T14:14:46;20.70;75.60
16523;DHT22;19889;52.546;13.348;2023-05-29T14:17:15;20.70;75.70
16523;DHT22;19889;52.546;13.348;2023-05-29T14:19:42;20.80;75.80
16523;DHT22;19889;52.546;13.348;2023-05-29T14:22:11;20.80;76.00
16523;DHT22;19889;52.546;13.348;2023-05-29T14:24:38;20.80;76.00
16523;DHT22;19889;52.546;13.348;2023-05-29T14:27:05;20.80;76.00
16523;DHT22;19889;52.546;13.348;2023-05-29T14:29:32;20.80;76.00
16523;DHT22;19889;52.546;13.348;2023-05-29T14:31:59;20.80;76.00
16523;DHT22;19889;52.546;13.348;2023-05-29T14:34:28;20.80;76.00
16523;DHT22;19889;52.546;13.348;2023-05-29T14:36:55;20.80;76.30
16523;DHT22;19889;52.546;13.348;2023-05-29T14:39:22;20.80;76.10
16523;DHT22;19889;52.546;13.348;2023-05-29T14:41:49;20.80;75.70
16523;DHT22;19889;52.546;13.348;2023-05-29T14:44:16;20.80;75.70
16523;DHT22;19889;52.546;13.348;2023-05-29T14:46:43;20.80;75.50
16523;DHT22;19889;52.546;13.348;2023-05-29T14:49:10;20.80;75.70
16523;DHT22;19889;52.546;13.348;2023-05-29T14:51:39;20.20;75.30
16523;DHT22;19889;52.546;13.348;2023-05-29T14:54:08;20.90;75.70
16523;DHT22;19889;52.546;13.348;2023-05-29T14:56:37;20.90;75.30
16523;DHT22;19889;52.546;13.348;2023-05-29T14:59:04;20.90;75.30
16523;DHT22;19889;52.546;13.348;2023-05-29T15:01:31;20.90;75.00
16523;DHT22;19889;52.546;13.348;2023-05-29T15:03:58;20.90;75.00
16523;DHT22;19889;52.546;13.348;2023-05-29T15:06:25;20.90;74.80
16523;DHT22;19889;52.546;13.348;2023-05-29T15:08:53;20.90;74.80
16523;DHT22;19889;52.546;13.348;2023-05-29T15:11:22;20.90;74.60
16523;DHT22;19889;52.546;13.348;2023-05-29T15:13:49;21.00;74.60
16523;DHT22;19889;52.546;13.348;2023-05-29T15:16:16;21.00;74.40
16523;DHT22;19889;52.546;13.348;2023-05-29T15:18:43;21.00;74.50
16523;DHT22;19889;52.546;13.348;2023-05-29T15:21:10;21.00;74.40
16523;DHT22;19889;52.546;13.348;2023-05-29T15:23:37;21.00;75.30
16523;DHT22;19889;52.546;13.348;2023-05-29T15:26:08;21.00;74.70